Terminal Aerodrome Forecast
Issued by NWS

Home | Current Version | Previous Version | Graphics & Text | Print | Product List | Glossary On
Versions: 1 2 3 4 5 6 7 8 9 10 11 12 13 14 15 16
767
FTUS43 KBIS 180928 AAA
TAFJMS
TAF AMD
KJMS 180928Z 1809/1906 19010KT P6SM SCT250 WS020/22040KT
     FM181030 24011KT P6SM SCT250 WS020/28045KT
     FM181200 29014KT P6SM FEW250 WS020/30040KT
     FM181400 30020G28KT P6SM FEW180 FEW250 WS020/30040KT
     FM181700 29024G34KT P6SM FEW250
     FM190000 26010KT P6SM FEW250=

USA.gov is the U.S. government's official web portal to all federal, state and local government web resources and services.